sensor_id;sensor_type;location;lat;lon;timestamp;P1;durP1;ratioP1;P2;durP2;ratioP2
31716;SDS011;18301;51.076;17.046;2022-10-16T00:00:21;9.13;;;5.70;;
31716;SDS011;18301;51.076;17.046;2022-10-16T00:05:22;10.88;;;6.32;;
31716;SDS011;18301;51.076;17.046;2022-10-16T00:10:24;9.77;;;6.90;;
31716;SDS011;18301;51.076;17.046;2022-10-16T00:15:26;11.10;;;6.45;;
31716;SDS011;18301;51.076;17.046;2022-10-16T00:20:27;9.07;;;6.20;;
31716;SDS011;18301;51.076;17.046;2022-10-16T00:25:29;12.70;;;6.85;;
31716;SDS011;18301;51.076;17.046;2022-10-16T00:30:30;10.15;;;6.63;;
31716;SDS011;18301;51.076;17.046;2022-10-16T00:35:31;10.98;;;6.07;;
31716;SDS011;18301;51.076;17.046;2022-10-16T00:40:33;8.20;;;6.13;;
31716;SDS011;18301;51.076;17.046;2022-10-16T00:45:34;8.40;;;5.90;;
31716;SDS011;18301;51.076;17.046;2022-10-16T00:50:36;8.10;;;5.47;;
31716;SDS011;18301;51.076;17.046;2022-10-16T00:55:38;10.20;;;5.75;;
31716;SDS011;18301;51.076;17.046;2022-10-16T01:00:42;9.40;;;5.45;;
31716;SDS011;18301;51.076;17.046;2022-10-16T01:05:49;6.85;;;4.85;;
31716;SDS011;18301;51.076;17.046;2022-10-16T01:10:59;9.68;;;5.20;;
31716;SDS011;18301;51.076;17.046;2022-10-16T01:16:37;7.72;;;5.13;;
31716;SDS011;18301;51.076;17.046;2022-10-16T01:21:39;6.32;;;4.65;;
31716;SDS011;18301;51.076;17.046;2022-10-16T01:26:49;6.32;;;4.72;;
31716;SDS011;18301;51.076;17.046;2022-10-16T01:32:55;6.03;;;4.70;;
31716;SDS011;18301;51.076;17.046;2022-10-16T01:43:14;7.50;;;4.80;;
31716;SDS011;18301;51.076;17.046;2022-10-16T01:48:18;7.15;;;4.70;;
31716;SDS011;18301;51.076;17.046;2022-10-16T01:53:22;7.25;;;4.75;;
31716;SDS011;18301;51.076;17.046;2022-10-16T01:58:26;6.40;;;4.43;;
31716;SDS011;18301;51.076;17.046;2022-10-16T02:03:29;7.82;;;5.22;;
31716;SDS011;18301;51.076;17.046;2022-10-16T02:08:30;7.32;;;5.10;;
31716;SDS011;18301;51.076;17.046;2022-10-16T02:13:39;8.45;;;5.30;;
31716;SDS011;18301;51.076;17.046;2022-10-16T02:18:46;9.68;;;5.63;;
31716;SDS011;18301;51.076;17.046;2022-10-16T02:23:50;7.40;;;5.20;;
31716;SDS011;18301;51.076;17.046;2022-10-16T02:28:59;5.70;;;4.57;;
31716;SDS011;18301;51.076;17.046;2022-10-16T02:34:05;7.90;;;5.55;;
31716;SDS011;18301;51.076;17.046;2022-10-16T02:39:09;8.52;;;5.88;;
31716;SDS011;18301;51.076;17.046;2022-10-16T02:44:11;8.35;;;6.13;;
31716;SDS011;18301;51.076;17.046;2022-10-16T02:49:13;7.97;;;5.78;;
31716;SDS011;18301;51.076;17.046;2022-10-16T02:54:14;8.90;;;5.93;;
31716;SDS011;18301;51.076;17.046;2022-10-16T02:59:15;8.25;;;5.97;;
31716;SDS011;18301;51.076;17.046;2022-10-16T03:04:17;10.93;;;6.13;;
31716;SDS011;18301;51.076;17.046;2022-10-16T03:09:18;10.75;;;5.72;;
31716;SDS011;18301;51.076;17.046;2022-10-16T03:14:20;10.00;;;6.22;;
31716;SDS011;18301;51.076;17.046;2022-10-16T03:19:21;7.88;;;5.63;;
31716;SDS011;18301;51.076;17.046;2022-10-16T03:24:23;10.45;;;6.25;;
31716;SDS011;18301;51.076;17.046;2022-10-16T03:29:24;9.20;;;5.93;;
31716;SDS011;18301;51.076;17.046;2022-10-16T03:34:26;7.13;;;5.60;;
31716;SDS011;18301;51.076;17.046;2022-10-16T03:39:29;9.95;;;5.40;;
31716;SDS011;18301;51.076;17.046;2022-10-16T03:44:30;8.63;;;5.38;;
31716;SDS011;18301;51.076;17.046;2022-10-16T03:49:31;9.80;;;6.15;;
31716;SDS011;18301;51.076;17.046;2022-10-16T03:54:33;9.02;;;6.75;;
31716;SDS011;18301;51.076;17.046;2022-10-16T03:59:34;12.23;;;7.10;;
31716;SDS011;18301;51.076;17.046;2022-10-16T04:04:36;11.48;;;7.78;;
31716;SDS011;18301;51.076;17.046;2022-10-16T04:09:37;12.95;;;8.77;;
31716;SDS011;18301;51.076;17.046;2022-10-16T04:14:38;10.80;;;7.50;;
31716;SDS011;18301;51.076;17.046;2022-10-16T04:19:40;10.20;;;7.05;;
31716;SDS011;18301;51.076;17.046;2022-10-16T04:24:41;10.30;;;7.32;;
31716;SDS011;18301;51.076;17.046;2022-10-16T04:29:43;10.43;;;6.97;;
31716;SDS011;18301;51.076;17.046;2022-10-16T04:34:44;10.80;;;6.25;;
31716;SDS011;18301;51.076;17.046;2022-10-16T04:39:46;9.25;;;5.78;;
31716;SDS011;18301;51.076;17.046;2022-10-16T04:44:47;9.80;;;6.35;;
31716;SDS011;18301;51.076;17.046;2022-10-16T04:49:48;6.97;;;5.40;;
31716;SDS011;18301;51.076;17.046;2022-10-16T04:54:50;10.07;;;5.90;;
31716;SDS011;18301;51.076;17.046;2022-10-16T04:59:52;7.30;;;5.35;;
31716;SDS011;18301;51.076;17.046;2022-10-16T05:04:53;7.70;;;5.22;;
31716;SDS011;18301;51.076;17.046;2022-10-16T05:09:55;8.68;;;5.93;;
31716;SDS011;18301;51.076;17.046;2022-10-16T05:14:56;9.55;;;5.53;;
31716;SDS011;18301;51.076;17.046;2022-10-16T05:19:59;7.97;;;5.13;;
31716;SDS011;18301;51.076;17.046;2022-10-16T05:25:01;7.68;;;5.22;;
31716;SDS011;18301;51.076;17.046;2022-10-16T05:30:02;10.43;;;6.13;;
31716;SDS011;18301;51.076;17.046;2022-10-16T05:35:08;7.43;;;5.60;;
31716;SDS011;18301;51.076;17.046;2022-10-16T05:40:13;8.98;;;5.90;;
31716;SDS011;18301;51.076;17.046;2022-10-16T05:45:15;7.25;;;5.47;;
31716;SDS011;18301;51.076;17.046;2022-10-16T05:50:17;9.32;;;6.20;;
31716;SDS011;18301;51.076;17.046;2022-10-16T05:55:18;9.27;;;5.93;;
31716;SDS011;18301;51.076;17.046;2022-10-16T06:00:20;7.80;;;5.28;;
31716;SDS011;18301;51.076;17.046;2022-10-16T06:05:21;7.22;;;5.75;;
31716;SDS011;18301;51.076;17.046;2022-10-16T06:10:22;8.10;;;5.88;;
31716;SDS011;18301;51.076;17.046;2022-10-16T06:15:24;7.55;;;5.82;;
31716;SDS011;18301;51.076;17.046;2022-10-16T06:20:25;7.72;;;6.03;;
31716;SDS011;18301;51.076;17.046;2022-10-16T06:25:27;7.43;;;5.88;;
31716;SDS011;18301;51.076;17.046;2022-10-16T06:30:28;8.55;;;5.93;;
31716;SDS011;18301;51.076;17.046;2022-10-16T06:35:30;8.27;;;6.38;;
31716;SDS011;18301;51.076;17.046;2022-10-16T06:40:33;9.38;;;6.13;;
31716;SDS011;18301;51.076;17.046;2022-10-16T06:45:34;8.98;;;6.22;;
31716;SDS011;18301;51.076;17.046;2022-10-16T06:50:35;8.63;;;5.70;;
31716;SDS011;18301;51.076;17.046;2022-10-16T06:55:37;7.05;;;5.43;;
31716;SDS011;18301;51.076;17.046;2022-10-16T07:00:38;6.90;;;5.28;;
31716;SDS011;18301;51.076;17.046;2022-10-16T07:05:43;5.70;;;4.50;;
31716;SDS011;18301;51.076;17.046;2022-10-16T07:10:44;7.25;;;4.30;;
31716;SDS011;18301;51.076;17.046;2022-10-16T07:15:46;4.68;;;3.85;;
31716;SDS011;18301;51.076;17.046;2022-10-16T07:20:47;7.13;;;3.90;;
31716;SDS011;18301;51.076;17.046;2022-10-16T07:25:53;4.60;;;3.90;;
31716;SDS011;18301;51.076;17.046;2022-10-16T07:30:55;4.70;;;3.70;;
31716;SDS011;18301;51.076;17.046;2022-10-16T07:36:01;5.10;;;3.42;;
31716;SDS011;18301;51.076;17.046;2022-10-16T07:41:03;5.97;;;3.50;;
31716;SDS011;18301;51.076;17.046;2022-10-16T07:46:06;3.55;;;2.95;;
31716;SDS011;18301;51.076;17.046;2022-10-16T07:51:08;4.18;;;3.15;;
31716;SDS011;18301;51.076;17.046;2022-10-16T07:56:10;4.43;;;2.80;;
31716;SDS011;18301;51.076;17.046;2022-10-16T08:01:13;4.18;;;3.10;;
31716;SDS011;18301;51.076;17.046;2022-10-16T08:06:17;4.00;;;3.25;;
31716;SDS011;18301;51.076;17.046;2022-10-16T08:11:25;4.80;;;3.67;;
31716;SDS011;18301;51.076;17.046;2022-10-16T08:16:27;4.72;;;3.47;;
31716;SDS011;18301;51.076;17.046;2022-10-16T08:21:28;3.40;;;3.10;;
31716;SDS011;18301;51.076;17.046;2022-10-16T08:26:29;3.90;;;3.03;;
31716;SDS011;18301;51.076;17.046;2022-10-16T08:31:31;4.38;;;3.08;;
31716;SDS011;18301;51.076;17.046;2022-10-16T08:36:32;5.18;;;3.90;;
31716;SDS011;18301;51.076;17.046;2022-10-16T08:52:17;4.30;;;3.63;;
31716;SDS011;18301;51.076;17.046;2022-10-16T08:57:21;4.57;;;3.30;;
31716;SDS011;18301;51.076;17.046;2022-10-16T09:02:35;7.13;;;3.25;;
31716;SDS011;18301;51.076;17.046;2022-10-16T09:07:48;4.20;;;3.08;;
31716;SDS011;18301;51.076;17.046;2022-10-16T09:24:00;3.47;;;3.13;;
31716;SDS011;18301;51.076;17.046;2022-10-16T09:29:16;3.35;;;3.05;;
31716;SDS011;18301;51.076;17.046;2022-10-16T09:39:28;4.00;;;3.03;;
31716;SDS011;18301;51.076;17.046;2022-10-16T09:44:30;4.95;;;3.03;;
31716;SDS011;18301;51.076;17.046;2022-10-16T09:49:33;3.30;;;2.80;;
31716;SDS011;18301;51.076;17.046;2022-10-16T09:54:34;4.00;;;2.88;;
31716;SDS011;18301;51.076;17.046;2022-10-16T09:59:44;2.90;;;2.60;;
31716;SDS011;18301;51.076;17.046;2022-10-16T10:04:48;3.53;;;2.70;;
31716;SDS011;18301;51.076;17.046;2022-10-16T10:09:58;3.47;;;2.72;;
31716;SDS011;18301;51.076;17.046;2022-10-16T10:15:11;3.30;;;2.67;;
31716;SDS011;18301;51.076;17.046;2022-10-16T10:20:24;3.22;;;2.70;;
31716;SDS011;18301;51.076;17.046;2022-10-16T10:25:30;3.05;;;2.40;;
31716;SDS011;18301;51.076;17.046;2022-10-16T10:30:52;6.10;;;2.67;;
31716;SDS011;18301;51.076;17.046;2022-10-16T10:41:56;4.25;;;2.20;;
31716;SDS011;18301;51.076;17.046;2022-10-16T10:47:35;2.95;;;2.30;;
31716;SDS011;18301;51.076;17.046;2022-10-16T10:52:53;2.10;;;1.90;;
31716;SDS011;18301;51.076;17.046;2022-10-16T11:09:27;2.47;;;1.90;;
31716;SDS011;18301;51.076;17.046;2022-10-16T11:14:46;2.20;;;2.00;;
31716;SDS011;18301;51.076;17.046;2022-10-16T11:19:57;2.83;;;1.80;;
31716;SDS011;18301;51.076;17.046;2022-10-16T11:30:25;2.45;;;2.20;;
31716;SDS011;18301;51.076;17.046;2022-10-16T11:35:36;4.88;;;2.50;;
31716;SDS011;18301;51.076;17.046;2022-10-16T11:40:59;3.15;;;2.47;;
31716;SDS011;18301;51.076;17.046;2022-10-16T11:46:18;3.95;;;3.13;;
31716;SDS011;18301;51.076;17.046;2022-10-16T11:51:41;4.25;;;3.17;;
31716;SDS011;18301;51.076;17.046;2022-10-16T11:56:48;4.10;;;3.42;;
31716;SDS011;18301;51.076;17.046;2022-10-16T12:07:36;4.63;;;3.35;;
31716;SDS011;18301;51.076;17.046;2022-10-16T12:12:48;4.25;;;3.50;;
31716;SDS011;18301;51.076;17.046;2022-10-16T12:17:50;4.72;;;4.10;;
31716;SDS011;18301;51.076;17.046;2022-10-16T12:27:59;3.80;;;2.92;;
31716;SDS011;18301;51.076;17.046;2022-10-16T12:33:03;4.45;;;3.70;;
31716;SDS011;18301;51.076;17.046;2022-10-16T12:38:08;5.20;;;4.05;;
31716;SDS011;18301;51.076;17.046;2022-10-16T12:48:27;5.40;;;3.83;;
31716;SDS011;18301;51.076;17.046;2022-10-16T12:53:57;7.35;;;4.60;;
31716;SDS011;18301;51.076;17.046;2022-10-16T13:26:09;10.05;;;6.47;;
31716;SDS011;18301;51.076;17.046;2022-10-16T13:31:22;6.80;;;5.50;;
31716;SDS011;18301;51.076;17.046;2022-10-16T13:36:27;6.68;;;5.28;;
31716;SDS011;18301;51.076;17.046;2022-10-16T13:41:35;8.95;;;5.95;;
31716;SDS011;18301;51.076;17.046;2022-10-16T13:46:37;9.05;;;6.30;;
31716;SDS011;18301;51.076;17.046;2022-10-16T13:51:38;7.22;;;5.32;;
31716;SDS011;18301;51.076;17.046;2022-10-16T13:56:40;6.78;;;5.32;;
31716;SDS011;18301;51.076;17.046;2022-10-16T14:01:42;7.18;;;5.47;;
31716;SDS011;18301;51.076;17.046;2022-10-16T14:06:45;5.95;;;4.88;;
31716;SDS011;18301;51.076;17.046;2022-10-16T14:17:00;3.70;;;3.33;;
31716;SDS011;18301;51.076;17.046;2022-10-16T14:22:04;4.40;;;3.67;;
31716;SDS011;18301;51.076;17.046;2022-10-16T14:27:34;4.80;;;4.07;;
31716;SDS011;18301;51.076;17.046;2022-10-16T14:32:39;5.10;;;3.63;;
31716;SDS011;18301;51.076;17.046;2022-10-16T14:37:43;7.22;;;3.75;;
31716;SDS011;18301;51.076;17.046;2022-10-16T14:42:45;5.05;;;3.83;;
31716;SDS011;18301;51.076;17.046;2022-10-16T14:47:57;5.60;;;3.70;;
31716;SDS011;18301;51.076;17.046;2022-10-16T14:53:01;3.88;;;3.47;;
31716;SDS011;18301;51.076;17.046;2022-10-16T14:58:03;5.80;;;3.80;;
31716;SDS011;18301;51.076;17.046;2022-10-16T15:03:04;4.85;;;3.90;;
31716;SDS011;18301;51.076;17.046;2022-10-16T15:08:05;4.80;;;3.95;;
31716;SDS011;18301;51.076;17.046;2022-10-16T15:13:09;5.10;;;4.30;;
31716;SDS011;18301;51.076;17.046;2022-10-16T15:18:13;6.43;;;5.00;;
31716;SDS011;18301;51.076;17.046;2022-10-16T15:23:19;6.55;;;4.35;;
31716;SDS011;18301;51.076;17.046;2022-10-16T15:28:23;6.05;;;5.07;;
31716;SDS011;18301;51.076;17.046;2022-10-16T15:33:26;6.75;;;5.05;;
31716;SDS011;18301;51.076;17.046;2022-10-16T15:38:35;6.15;;;4.65;;
31716;SDS011;18301;51.076;17.046;2022-10-16T15:43:37;6.22;;;4.90;;
31716;SDS011;18301;51.076;17.046;2022-10-16T15:48:38;6.93;;;5.05;;
31716;SDS011;18301;51.076;17.046;2022-10-16T15:53:40;9.43;;;5.93;;
31716;SDS011;18301;51.076;17.046;2022-10-16T15:58:41;9.00;;;6.57;;
31716;SDS011;18301;51.076;17.046;2022-10-16T16:03:44;10.07;;;7.50;;
31716;SDS011;18301;51.076;17.046;2022-10-16T16:08:46;10.55;;;7.72;;
31716;SDS011;18301;51.076;17.046;2022-10-16T16:13:47;8.73;;;7.07;;
31716;SDS011;18301;51.076;17.046;2022-10-16T16:18:50;10.43;;;7.85;;
31716;SDS011;18301;51.076;17.046;2022-10-16T16:23:54;12.60;;;8.45;;
31716;SDS011;18301;51.076;17.046;2022-10-16T16:28:56;14.13;;;9.38;;
31716;SDS011;18301;51.076;17.046;2022-10-16T16:33:58;15.00;;;10.65;;
31716;SDS011;18301;51.076;17.046;2022-10-16T16:38:59;16.60;;;11.00;;
31716;SDS011;18301;51.076;17.046;2022-10-16T16:44:01;16.33;;;11.35;;
31716;SDS011;18301;51.076;17.046;2022-10-16T16:49:05;17.58;;;12.43;;
31716;SDS011;18301;51.076;17.046;2022-10-16T16:54:07;17.90;;;13.15;;
31716;SDS011;18301;51.076;17.046;2022-10-16T16:59:14;20.50;;;13.10;;
31716;SDS011;18301;51.076;17.046;2022-10-16T17:04:18;20.87;;;13.53;;
31716;SDS011;18301;51.076;17.046;2022-10-16T17:09:20;20.00;;;13.38;;
31716;SDS011;18301;51.076;17.046;2022-10-16T17:14:22;18.58;;;13.07;;
31716;SDS011;18301;51.076;17.046;2022-10-16T17:19:24;19.05;;;13.35;;
31716;SDS011;18301;51.076;17.046;2022-10-16T17:24:25;23.88;;;14.70;;
31716;SDS011;18301;51.076;17.046;2022-10-16T17:29:27;25.70;;;15.35;;
31716;SDS011;18301;51.076;17.046;2022-10-16T17:34:28;21.08;;;14.02;;
31716;SDS011;18301;51.076;17.046;2022-10-16T17:39:30;20.98;;;12.63;;
31716;SDS011;18301;51.076;17.046;2022-10-16T17:44:31;20.05;;;12.70;;
31716;SDS011;18301;51.076;17.046;2022-10-16T17:49:33;19.52;;;12.32;;
31716;SDS011;18301;51.076;17.046;2022-10-16T17:54:34;20.75;;;13.32;;
31716;SDS011;18301;51.076;17.046;2022-10-16T17:59:36;23.02;;;15.82;;
31716;SDS011;18301;51.076;17.046;2022-10-16T18:04:37;23.02;;;15.43;;
31716;SDS011;18301;51.076;17.046;2022-10-16T18:09:39;20.42;;;14.30;;
31716;SDS011;18301;51.076;17.046;2022-10-16T18:15:00;19.13;;;13.98;;
31716;SDS011;18301;51.076;17.046;2022-10-16T18:20:02;19.73;;;13.70;;
31716;SDS011;18301;51.076;17.046;2022-10-16T18:25:07;19.13;;;13.18;;
31716;SDS011;18301;51.076;17.046;2022-10-16T18:30:09;24.35;;;15.13;;
31716;SDS011;18301;51.076;17.046;2022-10-16T18:35:11;21.63;;;14.55;;
31716;SDS011;18301;51.076;17.046;2022-10-16T18:40:13;23.95;;;15.27;;
31716;SDS011;18301;51.076;17.046;2022-10-16T18:45:15;24.02;;;14.75;;
31716;SDS011;18301;51.076;17.046;2022-10-16T18:50:16;24.20;;;15.65;;
31716;SDS011;18301;51.076;17.046;2022-10-16T18:55:18;25.65;;;17.83;;
31716;SDS011;18301;51.076;17.046;2022-10-16T19:00:20;22.08;;;15.20;;
31716;SDS011;18301;51.076;17.046;2022-10-16T19:05:21;24.77;;;15.93;;
31716;SDS011;18301;51.076;17.046;2022-10-16T19:10:23;22.13;;;14.45;;
31716;SDS011;18301;51.076;17.046;2022-10-16T19:15:25;21.30;;;15.05;;
31716;SDS011;18301;51.076;17.046;2022-10-16T19:20:26;24.95;;;15.27;;
31716;SDS011;18301;51.076;17.046;2022-10-16T19:25:28;24.80;;;16.52;;
31716;SDS011;18301;51.076;17.046;2022-10-16T19:30:29;23.95;;;16.60;;
31716;SDS011;18301;51.076;17.046;2022-10-16T19:35:32;25.48;;;16.17;;
31716;SDS011;18301;51.076;17.046;2022-10-16T19:40:34;27.88;;;17.50;;
31716;SDS011;18301;51.076;17.046;2022-10-16T19:45:35;23.10;;;15.25;;
31716;SDS011;18301;51.076;17.046;2022-10-16T19:50:43;25.10;;;16.15;;
31716;SDS011;18301;51.076;17.046;2022-10-16T19:55:45;28.15;;;18.45;;
31716;SDS011;18301;51.076;17.046;2022-10-16T20:00:47;25.15;;;18.35;;
31716;SDS011;18301;51.076;17.046;2022-10-16T20:05:49;26.48;;;18.05;;
31716;SDS011;18301;51.076;17.046;2022-10-16T20:10:54;30.25;;;19.20;;
31716;SDS011;18301;51.076;17.046;2022-10-16T20:15:56;29.75;;;18.25;;
31716;SDS011;18301;51.076;17.046;2022-10-16T20:20:57;30.75;;;18.77;;
31716;SDS011;18301;51.076;17.046;2022-10-16T20:25:59;30.83;;;19.88;;
31716;SDS011;18301;51.076;17.046;2022-10-16T20:31:05;31.50;;;19.88;;
31716;SDS011;18301;51.076;17.046;2022-10-16T20:36:11;30.88;;;19.27;;
31716;SDS011;18301;51.076;17.046;2022-10-16T20:41:14;30.80;;;19.88;;
31716;SDS011;18301;51.076;17.046;2022-10-16T20:46:18;31.35;;;19.83;;
31716;SDS011;18301;51.076;17.046;2022-10-16T20:51:23;33.83;;;22.80;;
31716;SDS011;18301;51.076;17.046;2022-10-16T20:56:27;29.58;;;19.45;;
31716;SDS011;18301;51.076;17.046;2022-10-16T21:01:30;28.33;;;19.92;;
31716;SDS011;18301;51.076;17.046;2022-10-16T21:06:32;29.92;;;19.40;;
31716;SDS011;18301;51.076;17.046;2022-10-16T21:11:35;29.02;;;20.10;;
31716;SDS011;18301;51.076;17.046;2022-10-16T21:16:37;29.80;;;20.15;;
31716;SDS011;18301;51.076;17.046;2022-10-16T21:21:39;29.30;;;19.35;;
31716;SDS011;18301;51.076;17.046;2022-10-16T21:26:40;28.90;;;19.02;;
31716;SDS011;18301;51.076;17.046;2022-10-16T21:31:42;30.95;;;20.33;;
31716;SDS011;18301;51.076;17.046;2022-10-16T21:36:43;29.00;;;19.67;;
31716;SDS011;18301;51.076;17.046;2022-10-16T21:41:46;31.15;;;20.20;;
31716;SDS011;18301;51.076;17.046;2022-10-16T21:46:49;29.02;;;19.75;;
31716;SDS011;18301;51.076;17.046;2022-10-16T21:51:50;30.75;;;20.25;;
31716;SDS011;18301;51.076;17.046;2022-10-16T21:56:52;33.80;;;20.65;;
31716;SDS011;18301;51.076;17.046;2022-10-16T22:01:53;30.05;;;19.92;;
31716;SDS011;18301;51.076;17.046;2022-10-16T22:06:55;28.75;;;19.80;;
31716;SDS011;18301;51.076;17.046;2022-10-16T22:11:57;31.40;;;20.67;;
31716;SDS011;18301;51.076;17.046;2022-10-16T22:16:58;32.25;;;19.88;;
31716;SDS011;18301;51.076;17.046;2022-10-16T22:22:00;29.10;;;20.20;;
31716;SDS011;18301;51.076;17.046;2022-10-16T22:27:01;33.42;;;21.00;;
31716;SDS011;18301;51.076;17.046;2022-10-16T22:32:03;32.13;;;20.48;;
31716;SDS011;18301;51.076;17.046;2022-10-16T22:37:05;30.65;;;20.52;;
31716;SDS011;18301;51.076;17.046;2022-10-16T22:42:06;33.47;;;21.35;;
31716;SDS011;18301;51.076;17.046;2022-10-16T22:47:07;33.65;;;21.70;;
31716;SDS011;18301;51.076;17.046;2022-10-16T22:52:09;29.75;;;20.23;;
31716;SDS011;18301;51.076;17.046;2022-10-16T22:57:10;34.60;;;20.55;;
31716;SDS011;18301;51.076;17.046;2022-10-16T23:02:12;32.55;;;20.17;;
31716;SDS011;18301;51.076;17.046;2022-10-16T23:07:13;32.45;;;19.38;;
31716;SDS011;18301;51.076;17.046;2022-10-16T23:12:15;34.10;;;21.75;;
31716;SDS011;18301;51.076;17.046;2022-10-16T23:17:19;34.70;;;22.17;;
31716;SDS011;18301;51.076;17.046;2022-10-16T23:22:21;38.22;;;22.67;;
31716;SDS011;18301;51.076;17.046;2022-10-16T23:27:22;36.28;;;22.92;;
31716;SDS011;18301;51.076;17.046;2022-10-16T23:32:24;34.65;;;22.48;;
31716;SDS011;18301;51.076;17.046;2022-10-16T23:37:26;36.30;;;22.50;;
31716;SDS011;18301;51.076;17.046;2022-10-16T23:42:27;35.63;;;22.77;;
31716;SDS011;18301;51.076;17.046;2022-10-16T23:47:29;35.70;;;22.25;;
31716;SDS011;18301;51.076;17.046;2022-10-16T23:52:31;34.22;;;21.83;;
31716;SDS011;18301;51.076;17.046;2022-10-16T23:57:33;37.50;;;22.83;;
